createdAt,value
2023-03-28T00:01:34.856Z,2.55
2023-03-28T00:04:05.777Z,2.30
2023-03-28T00:06:36.242Z,2.55
2023-03-28T00:09:06.575Z,2.50
2023-03-28T00:11:37.521Z,2.40
2023-03-28T00:14:09.708Z,2.40
2023-03-28T00:16:42.011Z,2.33
2023-03-28T00:19:16.144Z,2.60
2023-03-28T00:21:49.970Z,2.38
2023-03-28T00:24:23.340Z,2.53
2023-03-28T00:26:55.188Z,2.35
2023-03-28T00:29:34.250Z,2.38
2023-03-28T00:32:04.914Z,2.75
2023-03-28T00:34:35.570Z,2.60
2023-03-28T00:37:05.931Z,2.80
2023-03-28T00:39:35.962Z,2.50
2023-03-28T00:42:06.525Z,2.53
2023-03-28T00:44:54.501Z,2.35
2023-03-28T00:47:44.308Z,2.30
2023-03-28T00:50:22.210Z,2.40
2023-03-28T00:52:59.591Z,2.33
2023-03-28T00:55:36.055Z,2.63
2023-03-28T00:58:12.209Z,2.47
2023-03-28T01:00:47.400Z,2.42
2023-03-28T01:03:20.757Z,2.60
2023-03-28T01:05:51.484Z,2.58
2023-03-28T01:08:26.898Z,2.53
2023-03-28T01:10:57.981Z,2.30
2023-03-28T01:13:33.078Z,2.25
2023-03-28T01:16:07.839Z,2.30
2023-03-28T01:18:41.921Z,2.38
2023-03-28T01:21:55.467Z,2.45
2023-03-28T01:25:24.573Z,2.30
2023-03-28T01:28:02.688Z,1.90
2023-03-28T01:31:19.950Z,2.30
2023-03-28T01:34:32.778Z,2.20
2023-03-28T01:37:33.966Z,2.00
2023-03-28T01:40:28.018Z,2.20
2023-03-28T01:43:15.577Z,2.25
2023-03-28T01:45:59.005Z,2.13
2023-03-28T01:48:44.617Z,2.25
2023-03-28T01:51:26.834Z,2.08
2023-03-28T01:54:07.963Z,2.30
2023-03-28T01:56:44.662Z,2.17
2023-03-28T01:59:22.145Z,2.20
2023-03-28T02:02:03.068Z,2.30
2023-03-28T02:04:36.623Z,2.28
2023-03-28T02:07:09.222Z,2.38
2023-03-28T02:09:45.678Z,2.10
2023-03-28T02:12:22.608Z,2.30
2023-03-28T02:14:56.394Z,2.42
2023-03-28T02:17:30.617Z,2.35
2023-03-28T02:20:09.263Z,2.30
2023-03-28T02:22:49.603Z,2.22
2023-03-28T02:25:22.723Z,2.25
2023-03-28T02:27:57.970Z,2.35
2023-03-28T02:30:29.061Z,2.40
2023-03-28T02:33:03.097Z,2.40
2023-03-28T02:35:59.136Z,2.30
2023-03-28T02:38:42.813Z,2.50
2023-03-28T02:41:29.465Z,2.00
2023-03-28T02:44:23.019Z,2.40
2023-03-28T02:47:11.832Z,2.25
2023-03-28T02:50:05.062Z,2.10
2023-03-28T02:52:52.475Z,2.20
2023-03-28T02:55:33.674Z,2.20
2023-03-28T02:58:12.618Z,2.17
2023-03-28T03:00:43.270Z,2.30
2023-03-28T03:03:14.355Z,2.30
2023-03-28T03:05:44.379Z,2.30
2023-03-28T03:08:14.909Z,2.40
2023-03-28T03:10:45.103Z,2.45
2023-03-28T03:13:18.727Z,2.40
2023-03-28T03:15:49.911Z,2.33
2023-03-28T03:18:20.428Z,2.35
2023-03-28T03:20:50.635Z,2.55
2023-03-28T03:23:21.432Z,2.60
2023-03-28T03:25:52.216Z,2.53
2023-03-28T03:28:24.600Z,2.55
2023-03-28T03:30:55.623Z,2.33
2023-03-28T03:33:25.436Z,2.15
2023-03-28T03:35:55.926Z,2.58
2023-03-28T03:38:26.381Z,2.58
2023-03-28T03:40:56.979Z,2.25
2023-03-28T03:43:30.015Z,2.28
2023-03-28T03:46:01.396Z,2.58
2023-03-28T03:48:31.840Z,2.50
2023-03-28T03:51:02.260Z,2.28
2023-03-28T03:53:32.857Z,2.50
2023-03-28T03:56:04.343Z,2.17
2023-03-28T03:58:36.140Z,2.40
2023-03-28T04:01:06.535Z,2.45
2023-03-28T04:03:37.079Z,2.45
2023-03-28T04:06:08.684Z,2.33
2023-03-28T04:08:39.460Z,2.35
2023-03-28T04:11:11.104Z,2.50
2023-03-28T04:13:43.581Z,2.38
2023-03-28T04:16:15.901Z,2.40
2023-03-28T04:18:51.200Z,2.28
2023-03-28T04:21:27.918Z,2.20
2023-03-28T04:24:02.176Z,2.40
2023-03-28T04:26:35.996Z,2.47
2023-03-28T04:29:09.774Z,2.45
2023-03-28T04:31:40.908Z,2.50
2023-03-28T04:34:14.081Z,2.38
2023-03-28T04:36:45.426Z,2.50
2023-03-28T04:39:16.050Z,2.70
2023-03-28T04:41:47.763Z,2.53
2023-03-28T04:44:20.157Z,2.50
2023-03-28T04:46:51.309Z,2.53
2023-03-28T04:49:22.202Z,2.45
2023-03-28T04:51:52.374Z,2.60
2023-03-28T04:54:22.547Z,2.53
2023-03-28T04:56:53.180Z,2.65
2023-03-28T04:59:25.186Z,2.40
2023-03-28T05:01:55.536Z,2.63
2023-03-28T05:04:27.001Z,2.50
2023-03-28T05:06:58.151Z,2.17
2023-03-28T05:09:29.205Z,2.55
2023-03-28T05:11:59.934Z,3.00
2023-03-28T05:14:32.253Z,2.78
2023-03-28T05:17:02.406Z,2.70
2023-03-28T05:19:32.080Z,2.83
2023-03-28T05:22:02.172Z,3.00
2023-03-28T05:24:33.322Z,3.00
2023-03-28T05:27:04.055Z,2.85
2023-03-28T05:29:36.730Z,2.70
2023-03-28T05:32:07.248Z,2.80
2023-03-28T05:34:37.678Z,2.50
2023-03-28T05:37:08.154Z,2.85
2023-03-28T05:39:38.706Z,2.97
2023-03-28T05:42:09.395Z,3.15
2023-03-28T05:44:41.818Z,2.83
2023-03-28T05:47:12.149Z,2.83
2023-03-28T05:49:42.171Z,2.80
2023-03-28T05:52:12.319Z,2.75
2023-03-28T05:54:50.573Z,3.00
2023-03-28T05:57:22.567Z,2.72
2023-03-28T05:59:54.839Z,2.88
2023-03-28T06:02:26.165Z,2.85
2023-03-28T06:04:56.767Z,2.90
2023-03-28T06:07:39.269Z,2.72
2023-03-28T06:10:15.160Z,2.75
2023-03-28T06:12:45.737Z,2.85
2023-03-28T06:15:18.014Z,2.72
2023-03-28T06:17:48.409Z,2.65
2023-03-28T06:20:19.117Z,3.13
2023-03-28T06:22:49.293Z,3.28
2023-03-28T06:25:19.433Z,3.10
2023-03-28T06:27:49.869Z,3.13
2023-03-28T06:30:22.669Z,3.00
2023-03-28T06:32:53.381Z,3.00
2023-03-28T06:35:23.770Z,2.97
2023-03-28T06:37:53.656Z,2.95
2023-03-28T06:40:24.158Z,3.10
2023-03-28T06:42:55.088Z,3.17
2023-03-28T06:45:27.287Z,3.28
2023-03-28T06:47:57.456Z,3.00
2023-03-28T06:50:27.768Z,3.28
2023-03-28T06:52:58.187Z,3.22
2023-03-28T06:55:28.354Z,3.20
2023-03-28T06:57:58.845Z,2.75
2023-03-28T07:00:31.192Z,2.90
2023-03-28T07:03:01.587Z,3.35
2023-03-28T07:05:32.551Z,3.55
2023-03-28T07:08:02.264Z,3.30
2023-03-28T07:10:32.805Z,3.50
2023-03-28T07:13:03.777Z,3.42
2023-03-28T07:15:36.698Z,3.63
2023-03-28T07:18:11.809Z,3.50
2023-03-28T07:20:44.185Z,3.47
2023-03-28T07:23:15.758Z,3.40
2023-03-28T07:25:46.412Z,3.53
2023-03-28T07:28:16.920Z,3.50
2023-03-28T07:30:49.186Z,3.55
2023-03-28T07:33:25.891Z,3.35
2023-03-28T07:36:00.993Z,3.83
2023-03-28T07:38:31.652Z,3.53
2023-03-28T07:41:04.207Z,3.42
2023-03-28T07:43:34.856Z,3.40
2023-03-28T07:46:09.762Z,3.45
2023-03-28T07:48:41.448Z,3.35
2023-03-28T07:51:14.279Z,3.42
2023-03-28T07:53:44.780Z,3.30
2023-03-28T07:56:15.182Z,2.83
2023-03-28T07:58:45.378Z,3.33
2023-03-28T08:01:19.111Z,3.00
2023-03-28T08:03:49.120Z,3.25
2023-03-28T08:06:31.713Z,2.65
2023-03-28T08:09:03.240Z,3.03
2023-03-28T08:11:33.481Z,3.15
2023-03-28T08:14:04.067Z,3.47
2023-03-28T08:16:41.287Z,3.17
2023-03-28T08:19:12.895Z,3.63
2023-03-28T08:21:42.670Z,3.40
2023-03-28T08:24:17.506Z,3.45
2023-03-28T08:26:52.701Z,3.40
2023-03-28T08:29:23.608Z,2.88
2023-03-28T08:31:56.585Z,3.10
2023-03-28T08:34:26.685Z,3.33
2023-03-28T08:36:58.031Z,3.70
2023-03-28T08:39:28.423Z,3.20
2023-03-28T08:42:31.516Z,3.38
2023-03-28T08:45:40.994Z,3.00
2023-03-28T08:48:23.118Z,3.35
2023-03-28T08:51:01.801Z,3.70
2023-03-28T08:53:39.298Z,3.95
2023-03-28T08:56:11.739Z,3.33
2023-03-28T08:58:52.297Z,4.13
2023-03-28T09:01:23.896Z,3.22
2023-03-28T09:03:58.651Z,3.97
2023-03-28T09:06:38.477Z,4.32
2023-03-28T09:09:38.673Z,6.22
2023-03-28T09:12:31.270Z,5.00
2023-03-28T09:15:32.830Z,4.72
2023-03-28T09:18:34.314Z,4.75
2023-03-28T09:21:20.240Z,4.20
2023-03-28T09:24:16.813Z,4.35
2023-03-28T09:26:56.761Z,4.10
2023-03-28T09:29:29.173Z,3.70
2023-03-28T09:32:05.343Z,3.38
2023-03-28T09:34:43.072Z,3.25
2023-03-28T09:37:31.241Z,3.08
2023-03-28T09:40:14.761Z,2.75
2023-03-28T09:42:58.293Z,2.53
2023-03-28T09:45:46.082Z,2.30
2023-03-28T09:48:24.853Z,2.63
2023-03-28T09:50:56.333Z,2.92
2023-03-28T09:53:33.144Z,2.80
2023-03-28T09:56:08.570Z,2.75
2023-03-28T09:58:53.526Z,2.90
2023-03-28T10:01:42.589Z,2.63
2023-03-28T10:04:18.185Z,2.45
2023-03-28T10:06:50.668Z,2.13
2023-03-28T10:09:27.388Z,2.42
2023-03-28T10:12:00.124Z,2.08
2023-03-28T10:14:37.067Z,2.40
2023-03-28T10:17:14.674Z,2.20
2023-03-28T10:19:48.293Z,2.28
2023-03-28T10:22:26.037Z,2.40
2023-03-28T10:24:59.206Z,2.33
2023-03-28T10:27:33.248Z,2.97
2023-03-28T10:30:19.804Z,2.63
2023-03-28T10:33:22.797Z,3.20
2023-03-28T10:36:01.138Z,3.13
2023-03-28T10:38:38.520Z,3.45
2023-03-28T10:41:22.293Z,3.53
2023-03-28T10:43:55.080Z,3.10
2023-03-28T10:46:31.134Z,2.85
2023-03-28T10:49:08.001Z,2.80
2023-03-28T10:51:42.481Z,2.60
2023-03-28T10:54:48.704Z,2.38
2023-03-28T10:57:34.621Z,2.40
2023-03-28T11:00:13.656Z,2.38
2023-03-28T11:03:17.428Z,2.10
2023-03-28T11:06:05.772Z,2.10
2023-03-28T11:08:56.566Z,2.30
2023-03-28T11:12:08.377Z,2.20
2023-03-28T11:14:59.506Z,2.10
2023-03-28T11:17:46.099Z,2.20
2023-03-28T11:20:41.128Z,2.28
2023-03-28T11:23:44.925Z,2.22
2023-03-28T11:26:19.572Z,2.28
2023-03-28T11:29:11.320Z,2.20
2023-03-28T11:31:50.425Z,1.98
2023-03-28T11:34:29.128Z,2.25
2023-03-28T11:37:07.803Z,2.47
2023-03-28T11:39:45.168Z,2.13
2023-03-28T11:42:25.243Z,1.98
2023-03-28T11:45:08.136Z,2.22
2023-03-28T11:47:47.650Z,2.25
2023-03-28T11:50:25.156Z,2.15
2023-03-28T11:53:03.832Z,2.03
2023-03-28T11:55:41.976Z,2.17
2023-03-28T11:58:23.734Z,2.38
2023-03-28T12:01:05.842Z,2.67
2023-03-28T12:03:59.441Z,2.08
2023-03-28T12:06:44.025Z,2.00
2023-03-28T12:09:34.072Z,2.00
2023-03-28T12:12:12.620Z,2.00
2023-03-28T12:14:55.017Z,2.03
2023-03-28T12:17:31.196Z,2.00
2023-03-28T12:20:07.350Z,1.90
2023-03-28T12:22:45.367Z,1.90
2023-03-28T12:25:29.065Z,1.67
2023-03-28T12:28:12.084Z,1.83
2023-03-28T12:30:50.456Z,1.83
2023-03-28T12:33:38.328Z,1.92
2023-03-28T12:36:24.611Z,1.70
2023-03-28T12:39:02.365Z,1.90
2023-03-28T12:41:38.350Z,1.63
2023-03-28T12:44:15.290Z,1.50
2023-03-28T12:46:53.161Z,1.52
2023-03-28T12:49:35.180Z,1.40
2023-03-28T12:52:15.755Z,1.30
2023-03-28T12:55:02.182Z,1.38
2023-03-28T12:57:49.026Z,1.30
2023-03-28T13:00:29.307Z,1.30
2023-03-28T13:03:24.807Z,1.30
2023-03-28T13:06:09.414Z,1.23
2023-03-28T13:09:11.941Z,1.30
2023-03-28T13:11:56.457Z,1.30
2023-03-28T13:14:41.388Z,1.27
2023-03-28T13:17:25.160Z,1.05
2023-03-28T13:19:57.767Z,1.10
2023-03-28T13:22:36.427Z,1.50
2023-03-28T13:25:32.793Z,1.25
2023-03-28T13:28:24.929Z,1.20
2023-03-28T13:31:15.089Z,1.10
2023-03-28T13:33:51.820Z,0.73
2023-03-28T13:36:27.657Z,0.80
2023-03-28T13:39:23.822Z,0.73
2023-03-28T13:42:05.368Z,0.70
2023-03-28T13:44:50.071Z,0.68
2023-03-28T13:47:33.411Z,0.22
2023-03-28T13:50:16.877Z,0.50
2023-03-28T13:52:47.758Z,0.60
2023-03-28T13:55:25.981Z,0.77
2023-03-28T13:58:02.900Z,0.60
2023-03-28T14:00:33.237Z,0.55
2023-03-28T14:03:08.477Z,0.60
2023-03-28T14:05:48.998Z,0.68
2023-03-28T14:08:27.839Z,0.60
2023-03-28T14:10:59.591Z,0.40
2023-03-28T14:13:32.481Z,0.40
2023-03-28T14:16:03.231Z,0.50
2023-03-28T14:18:40.059Z,0.50
2023-03-28T14:21:11.554Z,0.70
2023-03-28T14:23:50.713Z,0.52
2023-03-28T14:26:24.348Z,0.50
2023-03-28T14:29:04.948Z,0.50
2023-03-28T14:31:37.910Z,0.52
2023-03-28T14:34:21.626Z,0.85
2023-03-28T14:37:04.129Z,0.65
2023-03-28T14:39:37.611Z,0.50
2023-03-28T14:42:12.974Z,0.60
2023-03-28T14:44:47.137Z,0.60
2023-03-28T14:47:22.846Z,0.50
2023-03-28T14:49:54.182Z,0.40
2023-03-28T14:52:32.020Z,0.43
2023-03-28T14:55:04.731Z,0.80
2023-03-28T14:57:38.377Z,0.47
2023-03-28T15:00:25.414Z,0.50
2023-03-28T15:02:57.389Z,0.52
2023-03-28T15:05:27.519Z,0.60
2023-03-28T15:08:04.172Z,0.40
2023-03-28T15:10:35.844Z,0.40
2023-03-28T15:13:17.378Z,0.60
2023-03-28T15:15:51.523Z,0.68
2023-03-28T15:18:28.964Z,0.50
2023-03-28T15:21:04.771Z,0.80
2023-03-28T15:23:40.230Z,0.60
2023-03-28T15:26:26.049Z,0.50
2023-03-28T15:28:58.955Z,0.50
2023-03-28T15:31:32.011Z,0.70
2023-03-28T15:34:02.814Z,0.63
2023-03-28T15:36:35.243Z,0.80
2023-03-28T15:39:21.123Z,0.90
2023-03-28T15:41:56.578Z,0.60
2023-03-28T15:44:33.494Z,0.80
2023-03-28T15:47:12.631Z,0.65
2023-03-28T15:49:42.945Z,0.85
2023-03-28T15:52:22.886Z,0.90
2023-03-28T15:54:56.823Z,0.80
2023-03-28T15:57:32.858Z,0.80
2023-03-28T16:00:04.725Z,0.75
2023-03-28T16:02:37.844Z,0.80
2023-03-28T16:05:28.055Z,0.82
2023-03-28T16:07:58.641Z,0.70
2023-03-28T16:10:30.488Z,0.90
2023-03-28T16:13:01.635Z,0.68
2023-03-28T16:15:33.208Z,0.82
2023-03-28T16:18:05.034Z,0.73
2023-03-28T16:20:40.486Z,0.55
2023-03-28T16:23:11.654Z,1.00
2023-03-28T16:25:42.557Z,0.80
2023-03-28T16:28:20.635Z,1.10
2023-03-28T16:30:50.991Z,0.90
2023-03-28T16:33:24.946Z,0.85
2023-03-28T16:35:55.747Z,0.70
2023-03-28T16:38:27.247Z,0.93
2023-03-28T16:40:57.721Z,0.75
2023-03-28T16:43:28.340Z,1.05
2023-03-28T16:45:58.942Z,1.05
2023-03-28T16:48:34.761Z,0.85
2023-03-28T16:51:05.517Z,0.82
2023-03-28T16:53:35.993Z,1.10
2023-03-28T16:56:09.352Z,0.90
2023-03-28T16:58:40.061Z,1.05
2023-03-28T17:01:12.574Z,1.30
2023-03-28T17:03:45.568Z,1.35
2023-03-28T17:06:17.425Z,1.30
2023-03-28T17:08:48.495Z,1.30
2023-03-28T17:11:20.985Z,1.25
2023-03-28T17:13:54.879Z,1.25
2023-03-28T17:16:26.299Z,1.33
2023-03-28T17:18:58.266Z,1.15
2023-03-28T17:21:28.141Z,1.10
2023-03-28T17:23:58.517Z,1.20
2023-03-28T17:26:29.111Z,1.13
2023-03-28T17:28:59.354Z,1.45
2023-03-28T17:31:29.884Z,1.30
2023-03-28T17:34:02.615Z,1.45
2023-03-28T17:36:33.536Z,1.20
2023-03-28T17:39:05.022Z,1.30
2023-03-28T17:41:34.784Z,1.73
2023-03-28T17:44:07.204Z,1.90
2023-03-28T17:46:52.591Z,2.08
2023-03-28T17:49:25.384Z,1.95
2023-03-28T17:51:57.581Z,2.17
2023-03-28T17:54:28.339Z,2.05
2023-03-28T17:56:59.630Z,2.10
2023-03-28T17:59:30.241Z,2.10
2023-03-28T18:02:00.998Z,2.10
2023-03-28T18:04:51.619Z,2.10
2023-03-28T18:07:22.222Z,1.77
2023-03-28T18:09:52.504Z,1.70
2023-03-28T18:12:23.343Z,2.00
2023-03-28T18:14:53.125Z,1.60
2023-03-28T18:17:24.536Z,1.77
2023-03-28T18:19:56.870Z,1.90
2023-03-28T18:22:27.880Z,1.70
2023-03-28T18:24:58.594Z,1.52
2023-03-28T18:27:30.534Z,1.70
2023-03-28T18:30:07.370Z,1.65
2023-03-28T18:32:39.909Z,1.60
2023-03-28T18:35:18.568Z,1.42
2023-03-28T18:37:53.521Z,1.30
2023-03-28T18:40:30.086Z,1.65
2023-03-28T18:43:00.244Z,1.50
2023-03-28T18:45:31.401Z,1.73
2023-03-28T18:48:01.673Z,1.50
2023-03-28T18:50:34.318Z,2.08
2023-03-28T18:53:05.524Z,2.00
2023-03-28T18:55:35.374Z,1.80
2023-03-28T18:58:06.960Z,2.20
2023-03-28T19:00:38.869Z,2.38
2023-03-28T19:03:10.242Z,2.50
2023-03-28T19:05:42.743Z,2.58
2023-03-28T19:08:14.677Z,2.42
2023-03-28T19:10:48.763Z,2.45
2023-03-28T19:13:19.346Z,2.30
2023-03-28T19:15:49.732Z,2.08
2023-03-28T19:18:20.320Z,2.00
2023-03-28T19:20:57.369Z,2.00
2023-03-28T19:23:31.033Z,2.03
2023-03-28T19:26:01.767Z,1.95
2023-03-28T19:28:32.496Z,1.70
2023-03-28T19:31:05.675Z,1.77
2023-03-28T19:33:36.190Z,2.03
2023-03-28T19:36:10.496Z,1.83
2023-03-28T19:38:42.614Z,1.70
2023-03-28T19:41:20.911Z,1.70
2023-03-28T19:43:51.902Z,1.70
2023-03-28T19:46:33.697Z,1.65
2023-03-28T19:49:08.684Z,1.50
2023-03-28T19:51:40.808Z,1.90
2023-03-28T19:54:11.362Z,1.70
2023-03-28T19:56:42.410Z,1.80
2023-03-28T19:59:13.007Z,1.80
2023-03-28T20:01:43.702Z,2.20
2023-03-28T20:04:14.813Z,1.85
2023-03-28T20:06:49.148Z,1.90
2023-03-28T20:09:19.602Z,1.73
2023-03-28T20:11:51.152Z,1.73
2023-03-28T20:14:22.423Z,1.80
2023-03-28T20:16:52.444Z,1.40
2023-03-28T20:19:23.615Z,1.60
2023-03-28T20:21:55.990Z,1.45
2023-03-28T20:24:26.297Z,1.60
2023-03-28T20:26:56.401Z,1.52
2023-03-28T20:29:27.598Z,1.73
2023-03-28T20:31:58.754Z,1.27
2023-03-28T20:34:29.653Z,1.70
2023-03-28T20:37:02.676Z,1.58
2023-03-28T20:39:34.604Z,1.55
2023-03-28T20:42:05.940Z,1.52
2023-03-28T20:44:38.633Z,1.50
2023-03-28T20:47:10.989Z,1.50
2023-03-28T20:49:46.541Z,1.52
2023-03-28T20:52:19.409Z,1.50
2023-03-28T20:54:50.655Z,1.52
2023-03-28T20:57:22.054Z,1.58
2023-03-28T20:59:55.460Z,1.70
2023-03-28T21:02:25.970Z,1.63
2023-03-28T21:04:56.654Z,1.45
2023-03-28T21:07:29.226Z,1.60
2023-03-28T21:09:59.947Z,1.55
2023-03-28T21:12:30.342Z,1.50
2023-03-28T21:15:00.821Z,1.85
2023-03-28T21:17:31.192Z,1.52
2023-03-28T21:20:04.185Z,1.88
2023-03-28T21:22:38.452Z,1.55
2023-03-28T21:25:10.930Z,1.90
2023-03-28T21:27:42.984Z,1.98
2023-03-28T21:30:14.821Z,2.17
2023-03-28T21:32:45.658Z,1.75
2023-03-28T21:35:17.114Z,1.90
2023-03-28T21:37:49.951Z,2.10
2023-03-28T21:40:20.432Z,2.03
2023-03-28T21:42:50.960Z,2.20
2023-03-28T21:45:21.534Z,2.10
2023-03-28T21:47:52.725Z,2.00
2023-03-28T21:50:24.058Z,1.80
2023-03-28T21:52:57.190Z,1.73
2023-03-28T21:55:29.232Z,1.65
2023-03-28T21:57:59.234Z,1.75
2023-03-28T22:00:30.208Z,1.83
2023-03-28T22:03:01.028Z,1.80
2023-03-28T22:05:31.697Z,1.50
2023-03-28T22:08:05.462Z,1.60
2023-03-28T22:10:36.192Z,1.70
2023-03-28T22:13:07.473Z,1.48
2023-03-28T22:15:37.916Z,1.70
2023-03-28T22:18:09.549Z,1.70
2023-03-28T22:20:44.056Z,1.52
2023-03-28T22:23:15.963Z,1.40
2023-03-28T22:25:47.065Z,1.58
2023-03-28T22:28:17.220Z,1.30
2023-03-28T22:30:47.786Z,1.40
2023-03-28T22:33:19.771Z,1.42
2023-03-28T22:35:50.505Z,1.23
2023-03-28T22:38:22.903Z,1.40
2023-03-28T22:40:53.634Z,1.50
2023-03-28T22:43:25.644Z,1.15
2023-03-28T22:45:55.955Z,1.38
2023-03-28T22:48:30.526Z,1.20
2023-03-28T22:51:02.164Z,1.60
2023-03-28T22:53:34.548Z,1.48
2023-03-28T22:56:05.964Z,1.50
2023-03-28T22:58:36.768Z,1.35
2023-03-28T23:01:08.164Z,1.48
2023-03-28T23:03:38.846Z,1.58
2023-03-28T23:06:10.144Z,1.42
2023-03-28T23:08:42.814Z,1.42
2023-03-28T23:11:13.688Z,1.35
2023-03-28T23:13:43.734Z,1.25
2023-03-28T23:16:14.831Z,1.45
2023-03-28T23:18:45.447Z,1.30
2023-03-28T23:21:16.176Z,1.33
2023-03-28T23:23:48.935Z,1.20
2023-03-28T23:26:22.508Z,1.70
2023-03-28T23:28:52.565Z,1.30
2023-03-28T23:31:23.208Z,1.30
2023-03-28T23:33:53.740Z,1.40
2023-03-28T23:36:26.519Z,1.08
2023-03-28T23:38:58.784Z,1.23
2023-03-28T23:41:29.220Z,1.50
2023-03-28T23:43:59.698Z,1.20
2023-03-28T23:46:30.105Z,1.15
2023-03-28T23:49:00.651Z,1.17
2023-03-28T23:51:31.773Z,1.30
2023-03-28T23:54:04.334Z,1.15
2023-03-28T23:56:34.878Z,1.10
2023-03-28T23:59:05.608Z,1.15
